createdAt,value
2023-02-17T00:01:32.435Z,15.18
2023-02-17T00:04:00.796Z,15.70
2023-02-17T00:06:32.248Z,15.70
2023-02-17T00:09:00.301Z,14.40
2023-02-17T00:11:28.467Z,15.43
2023-02-17T00:13:56.614Z,15.38
2023-02-17T00:16:27.031Z,16.00
2023-02-17T00:18:59.186Z,15.43
2023-02-17T00:21:30.385Z,16.45
2023-02-17T00:23:59.616Z,16.80
2023-02-17T00:26:27.318Z,16.20
2023-02-17T00:28:54.644Z,17.08
2023-02-17T00:31:23.485Z,16.77
2023-02-17T00:33:55.863Z,16.33
2023-02-17T00:36:24.152Z,15.77
2023-02-17T00:38:51.718Z,15.95
2023-02-17T00:41:19.880Z,16.42
2023-02-17T00:43:48.663Z,15.90
2023-02-17T00:46:17.848Z,15.25
2023-02-17T00:48:47.132Z,15.38
2023-02-17T00:51:15.973Z,15.40
2023-02-17T00:53:44.389Z,15.05
2023-02-17T00:56:12.601Z,14.80
2023-02-17T00:58:41.427Z,14.30
2023-02-17T01:01:10.618Z,14.48
2023-02-17T01:03:42.151Z,15.20
2023-02-17T01:06:18.384Z,15.48
2023-02-17T01:08:45.868Z,14.98
2023-02-17T01:11:25.550Z,14.60
2023-02-17T01:13:55.130Z,15.00
2023-02-17T01:16:27.725Z,14.32
2023-02-17T01:18:56.304Z,14.00
2023-02-17T01:21:29.026Z,13.85
2023-02-17T01:24:00.299Z,12.75
2023-02-17T01:26:32.179Z,13.90
2023-02-17T01:29:03.321Z,13.10
2023-02-17T01:31:30.459Z,12.80
2023-02-17T01:34:02.652Z,12.82
2023-02-17T01:36:30.034Z,13.13
2023-02-17T01:38:57.595Z,11.68
2023-02-17T01:41:28.241Z,13.23
2023-02-17T01:44:21.901Z,13.00
2023-02-17T01:46:53.102Z,12.70
2023-02-17T01:49:39.408Z,12.48
2023-02-17T01:52:26.324Z,12.18
2023-02-17T01:55:06.445Z,12.20
2023-02-17T01:57:38.949Z,12.95
2023-02-17T02:00:09.595Z,11.80
2023-02-17T02:02:45.831Z,11.70
2023-02-17T02:05:17.696Z,12.68
2023-02-17T02:07:48.390Z,12.98
2023-02-17T02:10:19.930Z,14.85
2023-02-17T02:12:47.326Z,14.48
2023-02-17T02:15:20.842Z,14.30
2023-02-17T02:18:12.140Z,13.57
2023-02-17T02:21:22.821Z,11.82
2023-02-17T02:24:00.219Z,11.25
2023-02-17T02:27:15.373Z,11.45
2023-02-17T02:30:23.032Z,10.80
2023-02-17T02:33:12.614Z,12.48
2023-02-17T02:36:00.381Z,12.30
2023-02-17T02:38:46.889Z,11.80
2023-02-17T02:41:22.358Z,12.55
2023-02-17T02:43:53.179Z,15.30
2023-02-17T02:46:20.168Z,14.10
2023-02-17T02:48:48.466Z,13.73
2023-02-17T02:52:02.298Z,13.68
2023-02-17T02:57:27.230Z,11.23
2023-02-17T03:00:35.371Z,11.82
2023-02-17T03:03:41.604Z,11.98
2023-02-17T03:06:41.400Z,12.45
2023-02-17T03:09:22.339Z,12.60
2023-02-17T03:11:50.917Z,12.88
2023-02-17T03:14:21.562Z,12.60
2023-02-17T03:16:51.539Z,11.20
2023-02-17T03:19:23.395Z,12.25
2023-02-17T03:24:25.380Z,11.68
2023-02-17T03:26:52.820Z,13.02
2023-02-17T03:29:20.031Z,12.40
2023-02-17T03:31:47.456Z,12.75
2023-02-17T03:34:15.217Z,12.32
2023-02-17T03:36:42.736Z,13.75
2023-02-17T03:39:09.762Z,12.77
2023-02-17T03:41:36.945Z,12.63
2023-02-17T03:44:04.103Z,12.02
2023-02-17T03:46:31.367Z,11.93
2023-02-17T03:48:58.559Z,12.55
2023-02-17T03:51:26.268Z,12.57
2023-02-17T03:53:53.261Z,12.00
2023-02-17T03:56:20.852Z,10.90
2023-02-17T03:58:48.092Z,12.50
2023-02-17T04:01:15.414Z,11.23
2023-02-17T04:03:42.898Z,12.02
2023-02-17T04:06:11.353Z,12.73
2023-02-17T04:08:40.074Z,12.43
2023-02-17T04:11:09.695Z,11.93
2023-02-17T04:13:37.913Z,11.55
2023-02-17T04:16:08.770Z,12.10
2023-02-17T04:18:36.023Z,11.95
2023-02-17T04:21:04.801Z,11.43
2023-02-17T04:23:32.246Z,11.43
2023-02-17T04:25:59.455Z,11.20
2023-02-17T04:28:27.087Z,12.38
2023-02-17T04:30:54.397Z,13.10
2023-02-17T04:33:21.424Z,11.85
2023-02-17T04:35:48.719Z,12.90
2023-02-17T04:38:16.226Z,12.43
2023-02-17T04:40:43.614Z,12.93
2023-02-17T04:43:10.651Z,13.05
2023-02-17T04:45:38.871Z,15.40
2023-02-17T04:48:06.056Z,15.57
2023-02-17T04:50:33.244Z,15.25
2023-02-17T04:53:00.264Z,14.20
2023-02-17T04:55:27.585Z,13.63
2023-02-17T04:57:54.577Z,13.43
2023-02-17T05:00:22.080Z,12.57
2023-02-17T05:02:49.053Z,12.35
2023-02-17T05:05:18.764Z,12.57
2023-02-17T05:07:46.818Z,12.27
2023-02-17T05:10:17.010Z,12.13
2023-02-17T05:12:44.712Z,12.55
2023-02-17T05:15:12.922Z,11.85
2023-02-17T05:17:40.384Z,12.20
2023-02-17T05:20:09.802Z,11.05
2023-02-17T05:22:37.502Z,11.57
2023-02-17T05:25:05.531Z,11.10
2023-02-17T05:27:33.913Z,10.95
2023-02-17T05:30:01.429Z,10.85
2023-02-17T05:32:28.696Z,11.45
2023-02-17T05:34:55.975Z,11.55
2023-02-17T05:37:23.038Z,10.95
2023-02-17T05:39:50.263Z,11.52
2023-02-17T05:42:17.263Z,10.73
2023-02-17T05:44:44.473Z,12.45
2023-02-17T05:47:11.498Z,11.10
2023-02-17T05:49:38.800Z,11.18
2023-02-17T05:52:05.802Z,11.93
2023-02-17T05:54:33.023Z,12.38
2023-02-17T05:56:59.990Z,12.07
2023-02-17T05:59:27.556Z,11.38
2023-02-17T06:01:54.514Z,11.32
2023-02-17T06:04:21.786Z,11.63
2023-02-17T06:06:48.805Z,11.55
2023-02-17T06:09:16.016Z,12.43
2023-02-17T06:11:42.984Z,11.80
2023-02-17T06:14:10.505Z,11.43
2023-02-17T06:16:37.549Z,11.30
2023-02-17T06:19:05.203Z,11.85
2023-02-17T06:21:32.584Z,13.07
2023-02-17T06:23:59.798Z,18.13
2023-02-17T06:26:26.921Z,16.45
2023-02-17T06:28:54.289Z,14.98
2023-02-17T06:31:21.422Z,16.65
2023-02-17T06:33:48.796Z,13.18
2023-02-17T06:36:15.687Z,13.07
2023-02-17T06:38:42.982Z,14.77
2023-02-17T06:41:10.488Z,14.10
2023-02-17T06:43:38.683Z,14.55
2023-02-17T06:46:07.298Z,11.98
2023-02-17T06:48:35.166Z,12.07
2023-02-17T06:51:02.330Z,11.40
2023-02-17T06:53:29.615Z,13.18
2023-02-17T06:55:56.753Z,13.65
2023-02-17T06:58:23.895Z,13.77
2023-02-17T07:00:51.584Z,16.85
2023-02-17T07:03:18.930Z,16.08
2023-02-17T07:05:45.931Z,15.95
2023-02-17T07:08:13.106Z,14.98
2023-02-17T07:10:40.199Z,15.90
2023-02-17T07:13:07.385Z,15.38
2023-02-17T07:15:34.811Z,13.65
2023-02-17T07:18:03.018Z,14.52
2023-02-17T07:20:31.943Z,13.55
2023-02-17T07:23:00.712Z,14.50
2023-02-17T07:25:27.853Z,14.80
2023-02-17T07:27:55.060Z,13.40
2023-02-17T07:30:22.084Z,14.02
2023-02-17T07:32:49.355Z,13.98
2023-02-17T07:35:16.967Z,14.43
2023-02-17T07:37:44.285Z,13.95
2023-02-17T07:40:12.424Z,14.60
2023-02-17T07:42:39.854Z,14.05
2023-02-17T07:45:07.662Z,15.45
2023-02-17T07:47:35.004Z,15.48
2023-02-17T07:50:02.077Z,15.48
2023-02-17T07:52:29.345Z,15.02
2023-02-17T07:54:56.400Z,15.15
2023-02-17T07:57:23.585Z,15.15
2023-02-17T07:59:50.583Z,14.48
2023-02-17T08:02:17.866Z,14.75
2023-02-17T08:04:45.392Z,14.63
2023-02-17T08:07:12.617Z,15.18
2023-02-17T08:09:58.568Z,14.73
2023-02-17T08:12:44.402Z,14.98
2023-02-17T08:15:12.148Z,15.68
2023-02-17T08:17:39.478Z,16.52
2023-02-17T08:20:08.972Z,15.60
2023-02-17T08:22:37.165Z,14.02
2023-02-17T08:25:06.009Z,14.20
2023-02-17T08:27:33.449Z,15.82
2023-02-17T08:30:00.842Z,16.42
2023-02-17T08:32:28.544Z,15.82
2023-02-17T08:34:57.136Z,19.63
2023-02-17T08:37:25.366Z,19.35
2023-02-17T08:39:52.286Z,19.00
2023-02-17T08:42:19.836Z,19.52
2023-02-17T08:44:46.836Z,18.73
2023-02-17T08:47:14.147Z,17.65
2023-02-17T08:49:41.104Z,17.60
2023-02-17T08:52:08.569Z,18.20
2023-02-17T08:54:36.451Z,16.73
2023-02-17T08:57:04.291Z,18.25
2023-02-17T08:59:31.638Z,18.17
2023-02-17T09:01:58.975Z,17.40
2023-02-17T09:04:26.093Z,17.98
2023-02-17T09:06:58.614Z,17.70
2023-02-17T09:09:26.921Z,18.35
2023-02-17T09:11:57.433Z,18.77
2023-02-17T09:14:24.792Z,18.70
2023-02-17T09:16:54.792Z,18.48
2023-02-17T09:19:22.275Z,20.77
2023-02-17T09:21:49.863Z,20.00
2023-02-17T09:24:19.001Z,19.63
2023-02-17T09:26:46.314Z,20.00
2023-02-17T09:29:13.284Z,20.77
2023-02-17T09:31:40.869Z,21.52
2023-02-17T09:34:07.883Z,21.13
2023-02-17T09:36:41.198Z,21.63
2023-02-17T09:39:11.601Z,21.70
2023-02-17T09:41:48.246Z,21.67
2023-02-17T09:44:23.555Z,21.98
2023-02-17T09:47:11.525Z,20.98
2023-02-17T09:49:48.119Z,21.88
2023-02-17T09:52:29.580Z,20.77
2023-02-17T09:55:28.102Z,20.20
2023-02-17T09:58:04.532Z,21.85
2023-02-17T10:01:02.284Z,21.80
2023-02-17T10:04:02.570Z,25.13
2023-02-17T10:06:36.015Z,25.95
2023-02-17T10:09:17.764Z,24.60
2023-02-17T10:12:01.993Z,19.77
2023-02-17T10:15:08.691Z,14.57
2023-02-17T10:18:13.134Z,11.80
2023-02-17T10:20:49.270Z,8.73
2023-02-17T10:23:35.095Z,9.50
2023-02-17T10:26:45.365Z,9.73
2023-02-17T10:29:33.886Z,8.98
2023-02-17T10:32:24.330Z,8.30
2023-02-17T10:35:39.093Z,8.25
2023-02-17T10:38:50.386Z,7.00
2023-02-17T10:41:25.092Z,8.00
2023-02-17T10:43:52.919Z,8.20
2023-02-17T10:46:29.282Z,7.10
2023-02-17T10:48:59.469Z,7.78
2023-02-17T10:51:31.118Z,7.53
2023-02-17T10:54:25.694Z,7.78
2023-02-17T10:56:58.230Z,7.10
2023-02-17T10:59:39.777Z,6.65
2023-02-17T11:02:39.822Z,7.90
2023-02-17T11:05:09.010Z,7.22
2023-02-17T11:07:41.794Z,7.25
2023-02-17T11:10:32.548Z,7.50
2023-02-17T11:13:02.523Z,7.70
2023-02-17T11:15:37.232Z,8.70
2023-02-17T11:18:18.302Z,8.00
2023-02-17T11:20:47.190Z,8.00
2023-02-17T11:23:23.240Z,7.78
2023-02-17T11:26:07.875Z,7.03
2023-02-17T11:28:35.227Z,6.97
2023-02-17T11:31:04.851Z,7.35
2023-02-17T11:33:40.462Z,7.20
2023-02-17T11:36:13.510Z,7.00
2023-02-17T11:38:40.401Z,6.70
2023-02-17T11:41:08.754Z,7.70
2023-02-17T11:43:39.020Z,12.27
2023-02-17T11:46:33.667Z,14.38
2023-02-17T11:49:36.987Z,16.10
2023-02-17T11:52:24.178Z,12.77
2023-02-17T11:55:42.559Z,13.80
2023-02-17T11:59:00.186Z,12.88
2023-02-17T12:01:59.507Z,11.98
2023-02-17T12:04:32.411Z,9.60
2023-02-17T12:10:10.614Z,8.00
2023-02-17T12:12:56.057Z,7.40
2023-02-17T12:16:03.575Z,6.60
2023-02-17T12:19:14.183Z,5.43
2023-02-17T12:21:55.594Z,5.35
2023-02-17T12:25:15.564Z,5.43
2023-02-17T12:28:26.909Z,5.25
2023-02-17T12:31:21.238Z,4.68
2023-02-17T12:34:15.408Z,4.78
2023-02-17T12:36:43.908Z,4.72
2023-02-17T12:39:24.352Z,4.78
2023-02-17T12:42:01.319Z,4.70
2023-02-17T12:44:39.064Z,3.88
2023-02-17T12:47:59.312Z,4.60
2023-02-17T12:50:37.272Z,4.40
2023-02-17T12:53:14.073Z,4.25
2023-02-17T12:55:50.800Z,4.57
2023-02-17T12:58:28.677Z,4.30
2023-02-17T13:01:11.464Z,4.97
2023-02-17T13:03:38.944Z,4.90
2023-02-17T13:06:37.992Z,4.43
2023-02-17T13:09:17.502Z,4.60
2023-02-17T13:11:45.650Z,5.40
2023-02-17T13:14:25.959Z,5.00
2023-02-17T13:16:54.317Z,4.78
2023-02-17T13:19:35.390Z,4.82
2023-02-17T13:22:04.061Z,4.97
2023-02-17T13:24:51.030Z,4.25
2023-02-17T13:27:22.765Z,3.85
2023-02-17T13:30:26.133Z,3.50
2023-02-17T13:33:24.576Z,4.30
2023-02-17T13:35:51.631Z,3.63
2023-02-17T13:38:31.109Z,3.60
2023-02-17T13:41:04.328Z,3.63
2023-02-17T13:43:42.824Z,3.08
2023-02-17T13:46:19.797Z,3.45
2023-02-17T13:48:58.999Z,3.75
2023-02-17T13:51:30.570Z,3.33
2023-02-17T13:54:09.036Z,3.75
2023-02-17T13:56:36.170Z,3.67
2023-02-17T13:59:18.095Z,3.58
2023-02-17T14:01:46.991Z,3.28
2023-02-17T14:04:28.108Z,3.75
2023-02-17T14:06:59.979Z,3.50
2023-02-17T14:09:35.489Z,3.30
2023-02-17T14:12:08.138Z,3.30
2023-02-17T14:14:38.243Z,3.35
2023-02-17T14:17:27.502Z,3.25
2023-02-17T14:19:54.790Z,3.22
2023-02-17T14:22:30.725Z,3.97
2023-02-17T14:25:06.692Z,3.75
2023-02-17T14:27:47.740Z,3.13
2023-02-17T14:30:27.350Z,3.63
2023-02-17T14:33:17.163Z,3.78
2023-02-17T14:35:58.061Z,3.75
2023-02-17T14:38:39.677Z,3.78
2023-02-17T14:41:11.678Z,3.63
2023-02-17T14:43:38.706Z,3.92
2023-02-17T14:46:06.366Z,4.30
2023-02-17T14:48:33.545Z,4.20
2023-02-17T14:51:00.995Z,4.88
2023-02-17T14:53:30.854Z,5.40
2023-02-17T14:56:27.524Z,5.18
2023-02-17T14:58:54.565Z,4.97
2023-02-17T15:01:24.639Z,4.95
2023-02-17T15:03:53.625Z,4.80
2023-02-17T15:06:39.318Z,4.55
2023-02-17T15:09:13.217Z,4.75
2023-02-17T15:11:45.533Z,4.30
2023-02-17T15:14:25.289Z,3.70
2023-02-17T15:16:52.522Z,3.40
2023-02-17T15:19:19.576Z,4.25
2023-02-17T15:21:51.438Z,4.28
2023-02-17T15:24:31.172Z,3.80
2023-02-17T15:27:03.183Z,3.80
2023-02-17T15:29:30.669Z,4.25
2023-02-17T15:32:03.462Z,4.50
2023-02-17T15:34:34.996Z,3.97
2023-02-17T15:37:02.433Z,4.72
2023-02-17T15:39:29.564Z,4.07
2023-02-17T15:42:05.832Z,4.20
2023-02-17T15:44:45.167Z,4.03
2023-02-17T15:47:17.490Z,3.90
2023-02-17T15:49:45.285Z,3.85
2023-02-17T15:52:14.453Z,2.88
2023-02-17T15:54:43.032Z,3.10
2023-02-17T15:57:24.579Z,3.00
2023-02-17T15:59:55.150Z,2.78
2023-02-17T16:02:25.718Z,3.13
2023-02-17T16:04:52.842Z,2.90
2023-02-17T16:07:20.069Z,2.63
2023-02-17T16:09:47.052Z,2.72
2023-02-17T16:12:26.539Z,2.72
2023-02-17T16:14:55.239Z,3.00
2023-02-17T16:17:22.887Z,3.13
2023-02-17T16:19:49.840Z,3.20
2023-02-17T16:22:17.298Z,3.40
2023-02-17T16:24:44.319Z,3.38
2023-02-17T16:27:16.726Z,3.80
2023-02-17T16:29:43.881Z,3.25
2023-02-17T16:32:13.146Z,3.03
2023-02-17T16:34:42.699Z,3.50
2023-02-17T16:37:17.003Z,3.80
2023-02-17T16:39:45.754Z,3.47
2023-02-17T16:42:14.764Z,3.67
2023-02-17T16:44:42.372Z,3.25
2023-02-17T16:47:20.813Z,3.15
2023-02-17T16:49:48.499Z,4.13
2023-02-17T16:52:34.000Z,3.65
2023-02-17T16:55:01.334Z,3.58
2023-02-17T16:57:28.717Z,4.20
2023-02-17T16:59:55.893Z,3.83
2023-02-17T17:02:23.194Z,3.95
2023-02-17T17:04:50.511Z,4.03
2023-02-17T17:07:18.032Z,3.80
2023-02-17T17:09:48.686Z,3.55
2023-02-17T17:12:23.499Z,3.90
2023-02-17T17:14:50.711Z,4.35
2023-02-17T17:17:18.075Z,4.57
2023-02-17T17:19:44.960Z,3.95
2023-02-17T17:22:12.511Z,4.53
2023-02-17T17:24:39.729Z,4.50
2023-02-17T17:27:07.116Z,4.43
2023-02-17T17:29:34.156Z,4.13
2023-02-17T17:32:02.367Z,4.72
2023-02-17T17:34:29.364Z,4.38
2023-02-17T17:36:57.347Z,4.18
2023-02-17T17:39:25.175Z,3.63
2023-02-17T17:41:52.541Z,4.28
2023-02-17T17:44:20.573Z,4.03
2023-02-17T17:46:47.871Z,4.20
2023-02-17T17:49:17.831Z,3.80
2023-02-17T17:51:45.353Z,3.53
2023-02-17T17:54:12.403Z,3.45
2023-02-17T17:56:43.133Z,3.90
2023-02-17T17:59:12.611Z,3.55
2023-02-17T18:01:40.351Z,3.65
2023-02-17T18:04:09.264Z,3.20
2023-02-17T18:06:46.786Z,3.90
2023-02-17T18:09:31.767Z,3.72
2023-02-17T18:12:07.371Z,3.45
2023-02-17T18:14:38.171Z,3.30
2023-02-17T18:17:07.789Z,3.35
2023-02-17T18:19:35.210Z,3.25
2023-02-17T18:22:02.755Z,3.22
2023-02-17T18:24:30.347Z,3.53
2023-02-17T18:26:57.658Z,4.00
2023-02-17T18:29:24.654Z,4.10
2023-02-17T18:31:52.499Z,3.63
2023-02-17T18:34:19.476Z,3.90
2023-02-17T18:36:46.730Z,3.50
2023-02-17T18:39:13.673Z,3.70
2023-02-17T18:41:40.908Z,3.83
2023-02-17T18:44:09.753Z,3.50
2023-02-17T18:46:39.838Z,3.85
2023-02-17T18:49:07.226Z,3.85
2023-02-17T18:51:34.677Z,3.85
2023-02-17T18:54:02.769Z,3.70
2023-02-17T18:56:33.163Z,4.15
2023-02-17T18:59:00.601Z,3.45
2023-02-17T19:01:33.092Z,3.38
2023-02-17T19:04:00.872Z,3.60
2023-02-17T19:06:33.639Z,3.65
2023-02-17T19:09:04.272Z,3.60
2023-02-17T19:11:33.216Z,3.55
2023-02-17T19:14:02.330Z,3.70
2023-02-17T19:16:32.041Z,3.70
2023-02-17T19:19:00.561Z,3.95
2023-02-17T19:21:28.286Z,3.53
2023-02-17T19:23:56.119Z,3.50
2023-02-17T19:26:23.488Z,4.15
2023-02-17T19:28:50.521Z,4.10
2023-02-17T19:31:20.377Z,4.10
2023-02-17T19:33:48.123Z,3.67
2023-02-17T19:36:21.739Z,3.70
2023-02-17T19:38:50.260Z,3.88
2023-02-17T19:41:18.957Z,3.88
2023-02-17T19:43:46.196Z,3.60
2023-02-17T19:46:18.040Z,3.95
2023-02-17T19:48:45.544Z,3.67
2023-02-17T19:51:13.916Z,4.07
2023-02-17T19:53:43.060Z,3.38
2023-02-17T19:56:32.345Z,3.42
2023-02-17T19:58:59.969Z,3.25
2023-02-17T20:01:31.135Z,3.75
2023-02-17T20:04:04.376Z,3.67
2023-02-17T20:06:41.486Z,3.20
2023-02-17T20:09:15.658Z,3.05
2023-02-17T20:11:45.025Z,3.83
2023-02-17T20:14:12.720Z,3.40
2023-02-17T20:16:41.066Z,3.50
2023-02-17T20:19:08.283Z,4.82
2023-02-17T20:21:38.506Z,4.07
2023-02-17T20:24:06.369Z,3.90
2023-02-17T20:26:41.335Z,4.13
2023-02-17T20:29:09.807Z,3.88
2023-02-17T20:31:39.853Z,4.70
2023-02-17T20:34:20.628Z,4.03
2023-02-17T20:36:47.903Z,4.40
2023-02-17T20:39:14.862Z,4.38
2023-02-17T20:41:42.237Z,4.13
2023-02-17T20:44:12.317Z,4.20
2023-02-17T20:46:42.767Z,4.65
2023-02-17T20:49:10.522Z,4.63
2023-02-17T20:51:37.850Z,4.47
2023-02-17T20:54:05.256Z,4.63
2023-02-17T20:56:38.714Z,4.60
2023-02-17T20:59:08.948Z,4.70
2023-02-17T21:01:36.762Z,4.95
2023-02-17T21:04:03.706Z,5.03
2023-02-17T21:06:42.900Z,4.57
2023-02-17T21:09:18.552Z,4.05
